sensor_id;sensor_type;location;lat;lon;timestamp;P1;durP1;ratioP1;P2;durP2;ratioP2
16804;SDS011;8520;50.102;20.010;2023-06-22T00:00:34;66.28;;;62.60;;
16804;SDS011;8520;50.102;20.010;2023-06-22T00:03:02;66.25;;;62.53;;
16804;SDS011;8520;50.102;20.010;2023-06-22T00:05:30;68.80;;;64.78;;
16804;SDS011;8520;50.102;20.010;2023-06-22T00:08:01;68.40;;;64.32;;
16804;SDS011;8520;50.102;20.010;2023-06-22T00:10:31;68.60;;;64.60;;
16804;SDS011;8520;50.102;20.010;2023-06-22T00:12:59;68.53;;;64.45;;
16804;SDS011;8520;50.102;20.010;2023-06-22T00:15:27;66.68;;;62.80;;
16804;SDS011;8520;50.102;20.010;2023-06-22T00:17:56;65.82;;;62.15;;
16804;SDS011;8520;50.102;20.010;2023-06-22T00:20:25;67.57;;;63.58;;
16804;SDS011;8520;50.102;20.010;2023-06-22T00:22:57;69.90;;;65.68;;
16804;SDS011;8520;50.102;20.010;2023-06-22T00:25:27;69.30;;;65.18;;
16804;SDS011;8520;50.102;20.010;2023-06-22T00:27:56;69.72;;;65.60;;
16804;SDS011;8520;50.102;20.010;2023-06-22T00:30:24;69.50;;;65.57;;
16804;SDS011;8520;50.102;20.010;2023-06-22T00:32:56;68.63;;;64.72;;
16804;SDS011;8520;50.102;20.010;2023-06-22T00:35:25;71.25;;;67.10;;
16804;SDS011;8520;50.102;20.010;2023-06-22T00:37:55;70.40;;;66.50;;
16804;SDS011;8520;50.102;20.010;2023-06-22T00:40:29;69.95;;;65.68;;
16804;SDS011;8520;50.102;20.010;2023-06-22T00:42:59;68.38;;;64.47;;
16804;SDS011;8520;50.102;20.010;2023-06-22T00:45:28;69.55;;;65.47;;
16804;SDS011;8520;50.102;20.010;2023-06-22T00:47:56;69.25;;;65.38;;
16804;SDS011;8520;50.102;20.010;2023-06-22T00:50:26;68.00;;;64.18;;
16804;SDS011;8520;50.102;20.010;2023-06-22T00:52:57;69.55;;;65.60;;
16804;SDS011;8520;50.102;20.010;2023-06-22T00:55:27;69.07;;;65.28;;
16804;SDS011;8520;50.102;20.010;2023-06-22T00:57:57;68.50;;;64.43;;
16804;SDS011;8520;50.102;20.010;2023-06-22T01:00:25;69.57;;;65.80;;
16804;SDS011;8520;50.102;20.010;2023-06-22T01:02:54;69.93;;;65.85;;
16804;SDS011;8520;50.102;20.010;2023-06-22T01:05:24;68.35;;;64.45;;
16804;SDS011;8520;50.102;20.010;2023-06-22T01:07:55;68.20;;;64.40;;
16804;SDS011;8520;50.102;20.010;2023-06-22T01:10:36;68.10;;;64.28;;
16804;SDS011;8520;50.102;20.010;2023-06-22T01:13:13;68.45;;;64.53;;
16804;SDS011;8520;50.102;20.010;2023-06-22T01:15:52;66.15;;;62.65;;
16804;SDS011;8520;50.102;20.010;2023-06-22T01:18:25;66.15;;;62.22;;
16804;SDS011;8520;50.102;20.010;2023-06-22T01:20:59;65.43;;;61.58;;
16804;SDS011;8520;50.102;20.010;2023-06-22T01:23:39;62.55;;;59.17;;
16804;SDS011;8520;50.102;20.010;2023-06-22T01:26:22;61.95;;;58.55;;
16804;SDS011;8520;50.102;20.010;2023-06-22T01:28:58;60.42;;;57.13;;
16804;SDS011;8520;50.102;20.010;2023-06-22T01:31:27;60.03;;;56.72;;
16804;SDS011;8520;50.102;20.010;2023-06-22T01:33:59;59.97;;;55.97;;
16804;SDS011;8520;50.102;20.010;2023-06-22T01:36:30;58.95;;;55.65;;
16804;SDS011;8520;50.102;20.010;2023-06-22T01:39:00;57.95;;;54.75;;
16804;SDS011;8520;50.102;20.010;2023-06-22T01:41:33;57.53;;;54.55;;
16804;SDS011;8520;50.102;20.010;2023-06-22T01:44:04;58.70;;;55.13;;
16804;SDS011;8520;50.102;20.010;2023-06-22T01:46:34;59.67;;;56.20;;
16804;SDS011;8520;50.102;20.010;2023-06-22T01:49:04;60.15;;;56.75;;
16804;SDS011;8520;50.102;20.010;2023-06-22T01:51:32;58.38;;;55.17;;
16804;SDS011;8520;50.102;20.010;2023-06-22T01:54:01;59.00;;;55.78;;
16804;SDS011;8520;50.102;20.010;2023-06-22T01:56:29;59.85;;;56.22;;
16804;SDS011;8520;50.102;20.010;2023-06-22T01:59:00;58.25;;;55.03;;
16804;SDS011;8520;50.102;20.010;2023-06-22T02:01:39;59.10;;;55.83;;
16804;SDS011;8520;50.102;20.010;2023-06-22T02:04:12;57.95;;;54.92;;
16804;SDS011;8520;50.102;20.010;2023-06-22T02:06:46;57.97;;;54.97;;
16804;SDS011;8520;50.102;20.010;2023-06-22T02:09:18;58.13;;;55.10;;
16804;SDS011;8520;50.102;20.010;2023-06-22T02:11:48;58.72;;;55.33;;
16804;SDS011;8520;50.102;20.010;2023-06-22T02:14:23;58.55;;;55.17;;
16804;SDS011;8520;50.102;20.010;2023-06-22T02:16:53;59.08;;;55.78;;
16804;SDS011;8520;50.102;20.010;2023-06-22T02:19:26;59.47;;;56.28;;
16804;SDS011;8520;50.102;20.010;2023-06-22T02:21:59;58.35;;;55.25;;
16804;SDS011;8520;50.102;20.010;2023-06-22T02:24:28;60.95;;;57.45;;
16804;SDS011;8520;50.102;20.010;2023-06-22T02:26:58;61.58;;;58.42;;
16804;SDS011;8520;50.102;20.010;2023-06-22T02:29:32;62.38;;;58.78;;
16804;SDS011;8520;50.102;20.010;2023-06-22T02:32:01;63.15;;;59.70;;
16804;SDS011;8520;50.102;20.010;2023-06-22T02:34:31;63.58;;;60.15;;
16804;SDS011;8520;50.102;20.010;2023-06-22T02:37:00;65.20;;;61.78;;
16804;SDS011;8520;50.102;20.010;2023-06-22T02:39:29;66.30;;;62.78;;
16804;SDS011;8520;50.102;20.010;2023-06-22T02:41:57;68.07;;;64.43;;
16804;SDS011;8520;50.102;20.010;2023-06-22T02:44:25;69.32;;;65.63;;
16804;SDS011;8520;50.102;20.010;2023-06-22T02:46:55;71.05;;;67.25;;
16804;SDS011;8520;50.102;20.010;2023-06-22T02:49:24;74.00;;;69.75;;
16804;SDS011;8520;50.102;20.010;2023-06-22T02:51:52;74.20;;;70.30;;
16804;SDS011;8520;50.102;20.010;2023-06-22T02:54:21;76.68;;;72.22;;
16804;SDS011;8520;50.102;20.010;2023-06-22T02:56:52;78.05;;;73.68;;
16804;SDS011;8520;50.102;20.010;2023-06-22T02:59:21;77.75;;;73.55;;
16804;SDS011;8520;50.102;20.010;2023-06-22T03:01:59;79.78;;;75.38;;
16804;SDS011;8520;50.102;20.010;2023-06-22T03:04:29;81.07;;;76.57;;
16804;SDS011;8520;50.102;20.010;2023-06-22T03:06:59;82.63;;;78.13;;
16804;SDS011;8520;50.102;20.010;2023-06-22T03:09:29;82.45;;;78.05;;
16804;SDS011;8520;50.102;20.010;2023-06-22T03:11:58;83.72;;;78.88;;
16804;SDS011;8520;50.102;20.010;2023-06-22T03:14:34;81.65;;;77.05;;
16804;SDS011;8520;50.102;20.010;2023-06-22T03:17:05;82.10;;;77.60;;
16804;SDS011;8520;50.102;20.010;2023-06-22T03:19:33;82.28;;;77.55;;
16804;SDS011;8520;50.102;20.010;2023-06-22T03:22:02;80.88;;;76.57;;
16804;SDS011;8520;50.102;20.010;2023-06-22T03:24:30;82.43;;;77.72;;
16804;SDS011;8520;50.102;20.010;2023-06-22T03:26:58;81.20;;;76.60;;
16804;SDS011;8520;50.102;20.010;2023-06-22T03:29:26;81.57;;;76.95;;
16804;SDS011;8520;50.102;20.010;2023-06-22T03:31:57;81.32;;;76.82;;
16804;SDS011;8520;50.102;20.010;2023-06-22T03:34:27;80.10;;;75.60;;
16804;SDS011;8520;50.102;20.010;2023-06-22T03:36:55;79.97;;;75.63;;
16804;SDS011;8520;50.102;20.010;2023-06-22T03:39:23;79.47;;;74.88;;
16804;SDS011;8520;50.102;20.010;2023-06-22T03:41:52;78.85;;;74.40;;
16804;SDS011;8520;50.102;20.010;2023-06-22T03:44:20;77.70;;;73.50;;
16804;SDS011;8520;50.102;20.010;2023-06-22T03:46:48;76.22;;;72.20;;
16804;SDS011;8520;50.102;20.010;2023-06-22T03:49:18;76.25;;;71.93;;
16804;SDS011;8520;50.102;20.010;2023-06-22T03:51:47;74.43;;;70.45;;
16804;SDS011;8520;50.102;20.010;2023-06-22T03:54:16;72.38;;;68.53;;
16804;SDS011;8520;50.102;20.010;2023-06-22T03:56:44;72.80;;;68.88;;
16804;SDS011;8520;50.102;20.010;2023-06-22T03:59:12;73.18;;;69.05;;
16804;SDS011;8520;50.102;20.010;2023-06-22T04:01:40;73.47;;;69.05;;
16804;SDS011;8520;50.102;20.010;2023-06-22T04:04:08;72.72;;;68.72;;
16804;SDS011;8520;50.102;20.010;2023-06-22T04:06:36;72.18;;;68.20;;
16804;SDS011;8520;50.102;20.010;2023-06-22T04:09:06;71.75;;;67.68;;
16804;SDS011;8520;50.102;20.010;2023-06-22T04:11:34;71.60;;;67.70;;
16804;SDS011;8520;50.102;20.010;2023-06-22T04:14:03;70.95;;;66.90;;
16804;SDS011;8520;50.102;20.010;2023-06-22T04:16:31;72.40;;;68.20;;
16804;SDS011;8520;50.102;20.010;2023-06-22T04:18:59;71.40;;;67.00;;
16804;SDS011;8520;50.102;20.010;2023-06-22T04:21:27;68.78;;;64.85;;
16804;SDS011;8520;50.102;20.010;2023-06-22T04:23:55;69.25;;;65.45;;
16804;SDS011;8520;50.102;20.010;2023-06-22T04:26:25;68.63;;;64.70;;
16804;SDS011;8520;50.102;20.010;2023-06-22T04:28:53;67.32;;;63.50;;
16804;SDS011;8520;50.102;20.010;2023-06-22T04:31:21;67.45;;;63.55;;
16804;SDS011;8520;50.102;20.010;2023-06-22T04:33:59;68.00;;;64.18;;
16804;SDS011;8520;50.102;20.010;2023-06-22T04:36:36;67.60;;;63.55;;
16804;SDS011;8520;50.102;20.010;2023-06-22T04:39:05;65.13;;;61.72;;
16804;SDS011;8520;50.102;20.010;2023-06-22T04:41:37;65.20;;;61.10;;
16804;SDS011;8520;50.102;20.010;2023-06-22T04:44:12;63.17;;;59.45;;
16804;SDS011;8520;50.102;20.010;2023-06-22T04:46:40;62.80;;;59.30;;
16804;SDS011;8520;50.102;20.010;2023-06-22T04:49:08;62.05;;;58.45;;
16804;SDS011;8520;50.102;20.010;2023-06-22T04:51:38;61.40;;;57.85;;
16804;SDS011;8520;50.102;20.010;2023-06-22T04:54:08;61.78;;;58.08;;
16804;SDS011;8520;50.102;20.010;2023-06-22T04:56:40;61.42;;;57.55;;
16804;SDS011;8520;50.102;20.010;2023-06-22T04:59:08;63.60;;;60.08;;
16804;SDS011;8520;50.102;20.010;2023-06-22T05:01:39;61.92;;;58.22;;
16804;SDS011;8520;50.102;20.010;2023-06-22T05:04:07;61.45;;;57.78;;
16804;SDS011;8520;50.102;20.010;2023-06-22T05:06:36;59.25;;;55.67;;
16804;SDS011;8520;50.102;20.010;2023-06-22T05:09:06;59.75;;;56.28;;
16804;SDS011;8520;50.102;20.010;2023-06-22T05:11:34;58.40;;;54.65;;
16804;SDS011;8520;50.102;20.010;2023-06-22T05:14:04;57.78;;;54.38;;
16804;SDS011;8520;50.102;20.010;2023-06-22T05:16:32;56.13;;;52.70;;
16804;SDS011;8520;50.102;20.010;2023-06-22T05:19:00;52.85;;;49.70;;
16804;SDS011;8520;50.102;20.010;2023-06-22T05:21:30;52.42;;;49.25;;
16804;SDS011;8520;50.102;20.010;2023-06-22T05:23:59;51.88;;;48.83;;
16804;SDS011;8520;50.102;20.010;2023-06-22T05:26:29;49.00;;;46.08;;
16804;SDS011;8520;50.102;20.010;2023-06-22T05:28:59;48.95;;;46.15;;
16804;SDS011;8520;50.102;20.010;2023-06-22T05:31:29;50.70;;;47.72;;
16804;SDS011;8520;50.102;20.010;2023-06-22T05:33:57;50.92;;;47.88;;
16804;SDS011;8520;50.102;20.010;2023-06-22T05:36:26;50.33;;;46.97;;
16804;SDS011;8520;50.102;20.010;2023-06-22T05:38:55;47.78;;;44.38;;
16804;SDS011;8520;50.102;20.010;2023-06-22T05:41:25;47.80;;;44.83;;
16804;SDS011;8520;50.102;20.010;2023-06-22T05:43:53;48.15;;;45.17;;
16804;SDS011;8520;50.102;20.010;2023-06-22T05:46:21;43.97;;;41.53;;
16804;SDS011;8520;50.102;20.010;2023-06-22T05:48:50;43.38;;;40.80;;
16804;SDS011;8520;50.102;20.010;2023-06-22T05:51:19;43.90;;;41.22;;
16804;SDS011;8520;50.102;20.010;2023-06-22T05:53:47;42.58;;;40.00;;
16804;SDS011;8520;50.102;20.010;2023-06-22T05:56:16;42.00;;;39.40;;
16804;SDS011;8520;50.102;20.010;2023-06-22T05:58:45;43.45;;;40.53;;
16804;SDS011;8520;50.102;20.010;2023-06-22T06:01:13;39.88;;;37.25;;
16804;SDS011;8520;50.102;20.010;2023-06-22T06:03:42;41.72;;;38.95;;
16804;SDS011;8520;50.102;20.010;2023-06-22T06:06:12;44.67;;;41.50;;
16804;SDS011;8520;50.102;20.010;2023-06-22T06:08:40;43.20;;;40.08;;
16804;SDS011;8520;50.102;20.010;2023-06-22T06:11:09;44.30;;;40.92;;
16804;SDS011;8520;50.102;20.010;2023-06-22T06:13:37;41.72;;;38.85;;
16804;SDS011;8520;50.102;20.010;2023-06-22T06:16:05;43.67;;;40.67;;
16804;SDS011;8520;50.102;20.010;2023-06-22T06:18:33;42.88;;;39.78;;
16804;SDS011;8520;50.102;20.010;2023-06-22T06:21:01;46.20;;;43.20;;
16804;SDS011;8520;50.102;20.010;2023-06-22T06:23:31;49.67;;;45.92;;
16804;SDS011;8520;50.102;20.010;2023-06-22T06:25:59;51.38;;;47.65;;
16804;SDS011;8520;50.102;20.010;2023-06-22T06:28:27;49.35;;;45.53;;
16804;SDS011;8520;50.102;20.010;2023-06-22T06:30:55;50.03;;;46.13;;
16804;SDS011;8520;50.102;20.010;2023-06-22T06:33:24;50.00;;;46.22;;
16804;SDS011;8520;50.102;20.010;2023-06-22T06:35:52;50.60;;;46.63;;
16804;SDS011;8520;50.102;20.010;2023-06-22T06:38:22;47.97;;;44.33;;
16804;SDS011;8520;50.102;20.010;2023-06-22T06:40:52;47.53;;;44.22;;
16804;SDS011;8520;50.102;20.010;2023-06-22T06:43:20;50.17;;;46.63;;
16804;SDS011;8520;50.102;20.010;2023-06-22T06:45:49;46.00;;;42.17;;
16804;SDS011;8520;50.102;20.010;2023-06-22T06:48:18;42.55;;;39.25;;
16804;SDS011;8520;50.102;20.010;2023-06-22T06:50:46;43.80;;;40.00;;
16804;SDS011;8520;50.102;20.010;2023-06-22T06:53:14;42.38;;;39.33;;
16804;SDS011;8520;50.102;20.010;2023-06-22T06:55:42;43.08;;;39.80;;
16804;SDS011;8520;50.102;20.010;2023-06-22T06:58:13;47.65;;;44.25;;
16804;SDS011;8520;50.102;20.010;2023-06-22T07:00:43;49.92;;;46.33;;
16804;SDS011;8520;50.102;20.010;2023-06-22T07:03:11;50.38;;;46.47;;
16804;SDS011;8520;50.102;20.010;2023-06-22T07:05:39;50.90;;;46.67;;
16804;SDS011;8520;50.102;20.010;2023-06-22T07:08:07;50.20;;;46.35;;
16804;SDS011;8520;50.102;20.010;2023-06-22T07:10:36;50.15;;;46.33;;
16804;SDS011;8520;50.102;20.010;2023-06-22T07:13:05;49.28;;;45.67;;
16804;SDS011;8520;50.102;20.010;2023-06-22T07:15:35;48.60;;;45.00;;
16804;SDS011;8520;50.102;20.010;2023-06-22T07:18:03;46.42;;;42.63;;
16804;SDS011;8520;50.102;20.010;2023-06-22T07:20:31;46.80;;;43.10;;
16804;SDS011;8520;50.102;20.010;2023-06-22T07:22:59;46.38;;;42.58;;
16804;SDS011;8520;50.102;20.010;2023-06-22T07:25:27;44.65;;;41.35;;
16804;SDS011;8520;50.102;20.010;2023-06-22T07:27:56;41.25;;;38.15;;
16804;SDS011;8520;50.102;20.010;2023-06-22T07:30:26;38.35;;;35.63;;
16804;SDS011;8520;50.102;20.010;2023-06-22T07:32:57;37.05;;;34.65;;
16804;SDS011;8520;50.102;20.010;2023-06-22T07:35:31;36.88;;;34.47;;
16804;SDS011;8520;50.102;20.010;2023-06-22T07:37:59;35.33;;;32.92;;
16804;SDS011;8520;50.102;20.010;2023-06-22T07:40:31;35.70;;;33.10;;
16804;SDS011;8520;50.102;20.010;2023-06-22T07:43:00;36.80;;;33.88;;
16804;SDS011;8520;50.102;20.010;2023-06-22T07:45:28;35.95;;;33.45;;
16804;SDS011;8520;50.102;20.010;2023-06-22T07:47:58;34.33;;;31.98;;
16804;SDS011;8520;50.102;20.010;2023-06-22T07:50:26;35.60;;;33.10;;
16804;SDS011;8520;50.102;20.010;2023-06-22T07:52:55;35.72;;;33.25;;
16804;SDS011;8520;50.102;20.010;2023-06-22T07:55:23;38.58;;;35.60;;
16804;SDS011;8520;50.102;20.010;2023-06-22T07:57:51;38.40;;;35.58;;
16804;SDS011;8520;50.102;20.010;2023-06-22T08:00:19;38.35;;;35.45;;
16804;SDS011;8520;50.102;20.010;2023-06-22T08:02:48;38.03;;;35.25;;
16804;SDS011;8520;50.102;20.010;2023-06-22T08:05:18;39.38;;;36.67;;
16804;SDS011;8520;50.102;20.010;2023-06-22T08:07:48;35.33;;;33.03;;
16804;SDS011;8520;50.102;20.010;2023-06-22T08:10:17;35.00;;;32.28;;
16804;SDS011;8520;50.102;20.010;2023-06-22T08:12:45;35.30;;;32.85;;
16804;SDS011;8520;50.102;20.010;2023-06-22T08:15:13;35.40;;;32.90;;
16804;SDS011;8520;50.102;20.010;2023-06-22T08:17:43;34.63;;;32.05;;
16804;SDS011;8520;50.102;20.010;2023-06-22T08:20:12;31.05;;;28.90;;
16804;SDS011;8520;50.102;20.010;2023-06-22T08:22:42;30.23;;;28.17;;
16804;SDS011;8520;50.102;20.010;2023-06-22T08:25:11;29.55;;;27.48;;
16804;SDS011;8520;50.102;20.010;2023-06-22T08:27:44;30.08;;;27.98;;
16804;SDS011;8520;50.102;20.010;2023-06-22T08:30:14;28.17;;;26.33;;
16804;SDS011;8520;50.102;20.010;2023-06-22T08:32:43;27.42;;;25.33;;
16804;SDS011;8520;50.102;20.010;2023-06-22T08:35:11;28.67;;;26.52;;
16804;SDS011;8520;50.102;20.010;2023-06-22T08:37:39;27.60;;;25.50;;
16804;SDS011;8520;50.102;20.010;2023-06-22T08:40:09;26.15;;;24.17;;
16804;SDS011;8520;50.102;20.010;2023-06-22T08:42:40;26.63;;;24.55;;
16804;SDS011;8520;50.102;20.010;2023-06-22T08:45:09;23.65;;;21.95;;
16804;SDS011;8520;50.102;20.010;2023-06-22T08:47:38;21.65;;;20.10;;
16804;SDS011;8520;50.102;20.010;2023-06-22T08:50:06;22.55;;;21.02;;
16804;SDS011;8520;50.102;20.010;2023-06-22T08:52:35;23.23;;;21.48;;
16804;SDS011;8520;50.102;20.010;2023-06-22T08:55:05;23.52;;;21.70;;
16804;SDS011;8520;50.102;20.010;2023-06-22T08:57:34;22.33;;;20.77;;
16804;SDS011;8520;50.102;20.010;2023-06-22T09:00:04;22.77;;;21.27;;
16804;SDS011;8520;50.102;20.010;2023-06-22T09:02:42;22.15;;;20.73;;
16804;SDS011;8520;50.102;20.010;2023-06-22T09:05:11;22.42;;;20.52;;
16804;SDS011;8520;50.102;20.010;2023-06-22T09:07:39;18.80;;;17.50;;
16804;SDS011;8520;50.102;20.010;2023-06-22T09:10:09;17.83;;;16.65;;
16804;SDS011;8520;50.102;20.010;2023-06-22T09:12:38;18.67;;;17.10;;
16804;SDS011;8520;50.102;20.010;2023-06-22T09:15:07;17.60;;;16.30;;
16804;SDS011;8520;50.102;20.010;2023-06-22T09:17:43;15.85;;;14.73;;
16804;SDS011;8520;50.102;20.010;2023-06-22T09:20:13;17.45;;;16.25;;
16804;SDS011;8520;50.102;20.010;2023-06-22T09:22:42;17.08;;;16.08;;
16804;SDS011;8520;50.102;20.010;2023-06-22T09:25:12;16.70;;;15.50;;
16804;SDS011;8520;50.102;20.010;2023-06-22T09:27:40;18.60;;;17.52;;
16804;SDS011;8520;50.102;20.010;2023-06-22T09:30:08;16.52;;;15.52;;
16804;SDS011;8520;50.102;20.010;2023-06-22T09:32:37;16.40;;;15.40;;
16804;SDS011;8520;50.102;20.010;2023-06-22T09:35:05;15.48;;;14.38;;
16804;SDS011;8520;50.102;20.010;2023-06-22T09:37:36;13.80;;;13.00;;
16804;SDS011;8520;50.102;20.010;2023-06-22T09:40:05;14.18;;;13.27;;
16804;SDS011;8520;50.102;20.010;2023-06-22T09:42:39;14.85;;;13.77;;
16804;SDS011;8520;50.102;20.010;2023-06-22T09:45:07;15.07;;;13.98;;
16804;SDS011;8520;50.102;20.010;2023-06-22T09:47:36;14.65;;;13.75;;
16804;SDS011;8520;50.102;20.010;2023-06-22T09:50:04;15.15;;;14.07;;
16804;SDS011;8520;50.102;20.010;2023-06-22T09:52:33;14.82;;;13.70;;
16804;SDS011;8520;50.102;20.010;2023-06-22T09:55:14;13.63;;;12.82;;
16804;SDS011;8520;50.102;20.010;2023-06-22T09:57:44;13.32;;;12.50;;
16804;SDS011;8520;50.102;20.010;2023-06-22T10:00:13;12.90;;;11.93;;
16804;SDS011;8520;50.102;20.010;2023-06-22T10:02:42;12.80;;;12.00;;
16804;SDS011;8520;50.102;20.010;2023-06-22T10:05:11;12.30;;;11.68;;
16804;SDS011;8520;50.102;20.010;2023-06-22T10:07:39;12.40;;;11.68;;
16804;SDS011;8520;50.102;20.010;2023-06-22T10:10:10;13.55;;;12.57;;
16804;SDS011;8520;50.102;20.010;2023-06-22T10:12:41;13.45;;;12.52;;
16804;SDS011;8520;50.102;20.010;2023-06-22T10:15:12;13.07;;;12.07;;
16804;SDS011;8520;50.102;20.010;2023-06-22T10:17:41;12.32;;;11.48;;
16804;SDS011;8520;50.102;20.010;2023-06-22T10:20:09;13.25;;;12.38;;
16804;SDS011;8520;50.102;20.010;2023-06-22T10:22:41;12.35;;;11.60;;
16804;SDS011;8520;50.102;20.010;2023-06-22T10:25:11;12.90;;;12.15;;
16804;SDS011;8520;50.102;20.010;2023-06-22T10:27:40;12.02;;;11.05;;
16804;SDS011;8520;50.102;20.010;2023-06-22T10:30:08;12.00;;;11.10;;
16804;SDS011;8520;50.102;20.010;2023-06-22T10:32:41;12.30;;;11.48;;
16804;SDS011;8520;50.102;20.010;2023-06-22T10:35:10;12.02;;;11.32;;
16804;SDS011;8520;50.102;20.010;2023-06-22T10:37:40;11.75;;;11.05;;
16804;SDS011;8520;50.102;20.010;2023-06-22T10:40:10;12.05;;;11.38;;
16804;SDS011;8520;50.102;20.010;2023-06-22T10:42:39;12.32;;;11.43;;
16804;SDS011;8520;50.102;20.010;2023-06-22T10:45:08;11.90;;;11.18;;
16804;SDS011;8520;50.102;20.010;2023-06-22T10:47:36;12.07;;;11.38;;
16804;SDS011;8520;50.102;20.010;2023-06-22T10:50:07;12.40;;;11.50;;
16804;SDS011;8520;50.102;20.010;2023-06-22T10:52:35;11.18;;;10.35;;
16804;SDS011;8520;50.102;20.010;2023-06-22T10:55:04;11.52;;;10.85;;
16804;SDS011;8520;50.102;20.010;2023-06-22T10:57:33;11.05;;;10.45;;
16804;SDS011;8520;50.102;20.010;2023-06-22T11:00:01;11.60;;;10.80;;
16804;SDS011;8520;50.102;20.010;2023-06-22T11:02:32;11.90;;;10.90;;
16804;SDS011;8520;50.102;20.010;2023-06-22T11:05:00;11.27;;;10.50;;
16804;SDS011;8520;50.102;20.010;2023-06-22T11:07:31;10.65;;;10.02;;
16804;SDS011;8520;50.102;20.010;2023-06-22T11:09:59;11.75;;;10.77;;
16804;SDS011;8520;50.102;20.010;2023-06-22T11:12:27;10.07;;;9.50;;
16804;SDS011;8520;50.102;20.010;2023-06-22T11:14:55;10.90;;;10.00;;
16804;SDS011;8520;50.102;20.010;2023-06-22T11:17:25;10.52;;;9.77;;
16804;SDS011;8520;50.102;20.010;2023-06-22T11:19:53;10.40;;;9.77;;
16804;SDS011;8520;50.102;20.010;2023-06-22T11:22:21;11.48;;;10.65;;
16804;SDS011;8520;50.102;20.010;2023-06-22T11:24:51;10.77;;;10.07;;
16804;SDS011;8520;50.102;20.010;2023-06-22T11:27:19;11.13;;;10.43;;
16804;SDS011;8520;50.102;20.010;2023-06-22T11:29:47;11.23;;;10.43;;
16804;SDS011;8520;50.102;20.010;2023-06-22T11:32:16;9.73;;;9.20;;
16804;SDS011;8520;50.102;20.010;2023-06-22T11:34:44;10.48;;;9.60;;
16804;SDS011;8520;50.102;20.010;2023-06-22T11:37:12;10.27;;;9.65;;
16804;SDS011;8520;50.102;20.010;2023-06-22T11:39:41;9.85;;;9.18;;
16804;SDS011;8520;50.102;20.010;2023-06-22T11:42:20;10.60;;;9.88;;
16804;SDS011;8520;50.102;20.010;2023-06-22T11:44:50;9.88;;;9.15;;
16804;SDS011;8520;50.102;20.010;2023-06-22T11:47:18;10.10;;;9.18;;
16804;SDS011;8520;50.102;20.010;2023-06-22T11:49:46;10.00;;;9.40;;
16804;SDS011;8520;50.102;20.010;2023-06-22T11:52:14;9.95;;;9.13;;
16804;SDS011;8520;50.102;20.010;2023-06-22T11:54:44;9.65;;;8.98;;
16804;SDS011;8520;50.102;20.010;2023-06-22T11:57:12;9.57;;;8.98;;
16804;SDS011;8520;50.102;20.010;2023-06-22T11:59:42;9.82;;;9.02;;
16804;SDS011;8520;50.102;20.010;2023-06-22T12:02:10;9.20;;;8.70;;
16804;SDS011;8520;50.102;20.010;2023-06-22T12:04:38;9.30;;;8.70;;
16804;SDS011;8520;50.102;20.010;2023-06-22T12:07:06;9.95;;;9.25;;
16804;SDS011;8520;50.102;20.010;2023-06-22T12:09:34;9.18;;;8.60;;
16804;SDS011;8520;50.102;20.010;2023-06-22T12:12:03;9.10;;;8.40;;
16804;SDS011;8520;50.102;20.010;2023-06-22T12:14:34;9.75;;;9.00;;
16804;SDS011;8520;50.102;20.010;2023-06-22T12:17:04;9.93;;;8.95;;
16804;SDS011;8520;50.102;20.010;2023-06-22T12:19:33;9.55;;;8.90;;
16804;SDS011;8520;50.102;20.010;2023-06-22T12:22:01;9.90;;;8.85;;
16804;SDS011;8520;50.102;20.010;2023-06-22T12:24:29;9.10;;;8.57;;
16804;SDS011;8520;50.102;20.010;2023-06-22T12:26:57;9.05;;;8.55;;
16804;SDS011;8520;50.102;20.010;2023-06-22T12:29:26;9.10;;;8.60;;
16804;SDS011;8520;50.102;20.010;2023-06-22T12:31:54;9.88;;;9.20;;
16804;SDS011;8520;50.102;20.010;2023-06-22T12:34:23;9.35;;;8.82;;
16804;SDS011;8520;50.102;20.010;2023-06-22T12:36:51;9.77;;;8.90;;
16804;SDS011;8520;50.102;20.010;2023-06-22T12:39:21;9.57;;;8.88;;
16804;SDS011;8520;50.102;20.010;2023-06-22T12:41:49;9.20;;;8.68;;
16804;SDS011;8520;50.102;20.010;2023-06-22T12:44:17;9.80;;;9.20;;
16804;SDS011;8520;50.102;20.010;2023-06-22T12:46:45;9.73;;;9.13;;
16804;SDS011;8520;50.102;20.010;2023-06-22T12:49:13;9.07;;;8.48;;
16804;SDS011;8520;50.102;20.010;2023-06-22T12:51:43;8.95;;;8.45;;
16804;SDS011;8520;50.102;20.010;2023-06-22T12:54:12;9.52;;;8.75;;
16804;SDS011;8520;50.102;20.010;2023-06-22T12:56:40;11.02;;;8.77;;
16804;SDS011;8520;50.102;20.010;2023-06-22T12:59:10;9.40;;;8.75;;
16804;SDS011;8520;50.102;20.010;2023-06-22T13:01:38;9.68;;;9.07;;
16804;SDS011;8520;50.102;20.010;2023-06-22T13:04:06;9.55;;;8.65;;
16804;SDS011;8520;50.102;20.010;2023-06-22T13:06:37;8.75;;;8.13;;
16804;SDS011;8520;50.102;20.010;2023-06-22T13:09:07;9.55;;;8.85;;
16804;SDS011;8520;50.102;20.010;2023-06-22T13:11:46;8.75;;;8.23;;
16804;SDS011;8520;50.102;20.010;2023-06-22T13:14:14;9.23;;;8.40;;
16804;SDS011;8520;50.102;20.010;2023-06-22T13:16:43;9.45;;;8.85;;
16804;SDS011;8520;50.102;20.010;2023-06-22T13:19:12;10.32;;;9.55;;
16804;SDS011;8520;50.102;20.010;2023-06-22T13:21:41;8.73;;;8.25;;
16804;SDS011;8520;50.102;20.010;2023-06-22T13:24:10;9.05;;;8.45;;
16804;SDS011;8520;50.102;20.010;2023-06-22T13:26:38;10.10;;;9.50;;
16804;SDS011;8520;50.102;20.010;2023-06-22T13:29:07;9.45;;;8.95;;
16804;SDS011;8520;50.102;20.010;2023-06-22T13:31:35;9.13;;;8.52;;
16804;SDS011;8520;50.102;20.010;2023-06-22T13:34:03;9.07;;;8.55;;
16804;SDS011;8520;50.102;20.010;2023-06-22T13:36:31;9.68;;;9.15;;
16804;SDS011;8520;50.102;20.010;2023-06-22T13:38:59;9.15;;;8.40;;
16804;SDS011;8520;50.102;20.010;2023-06-22T13:41:29;9.00;;;8.13;;
16804;SDS011;8520;50.102;20.010;2023-06-22T13:43:57;9.35;;;8.60;;
16804;SDS011;8520;50.102;20.010;2023-06-22T13:46:25;8.90;;;8.40;;
16804;SDS011;8520;50.102;20.010;2023-06-22T13:48:53;8.50;;;8.00;;
16804;SDS011;8520;50.102;20.010;2023-06-22T13:51:22;8.75;;;8.25;;
16804;SDS011;8520;50.102;20.010;2023-06-22T13:53:50;8.73;;;8.20;;
16804;SDS011;8520;50.102;20.010;2023-06-22T13:56:19;9.43;;;8.75;;
16804;SDS011;8520;50.102;20.010;2023-06-22T13:58:49;9.13;;;8.43;;
16804;SDS011;8520;50.102;20.010;2023-06-22T14:01:17;9.80;;;9.10;;
16804;SDS011;8520;50.102;20.010;2023-06-22T14:03:46;9.05;;;8.40;;
16804;SDS011;8520;50.102;20.010;2023-06-22T14:06:15;9.25;;;8.32;;
16804;SDS011;8520;50.102;20.010;2023-06-22T14:08:44;9.23;;;8.63;;
16804;SDS011;8520;50.102;20.010;2023-06-22T14:11:12;9.32;;;8.63;;
16804;SDS011;8520;50.102;20.010;2023-06-22T14:13:41;9.55;;;8.70;;
16804;SDS011;8520;50.102;20.010;2023-06-22T14:16:11;8.93;;;8.32;;
16804;SDS011;8520;50.102;20.010;2023-06-22T14:18:39;8.85;;;8.35;;
16804;SDS011;8520;50.102;20.010;2023-06-22T14:21:07;9.93;;;9.25;;
16804;SDS011;8520;50.102;20.010;2023-06-22T14:23:35;9.18;;;8.57;;
16804;SDS011;8520;50.102;20.010;2023-06-22T14:26:04;9.43;;;8.60;;
16804;SDS011;8520;50.102;20.010;2023-06-22T14:28:32;9.63;;;8.93;;
16804;SDS011;8520;50.102;20.010;2023-06-22T14:31:00;9.27;;;8.68;;
16804;SDS011;8520;50.102;20.010;2023-06-22T14:33:30;9.50;;;8.75;;
16804;SDS011;8520;50.102;20.010;2023-06-22T14:35:58;9.93;;;9.13;;
16804;SDS011;8520;50.102;20.010;2023-06-22T14:38:26;10.15;;;9.13;;